createdAt,value
2023-03-02T00:01:39.848Z,100.00
2023-03-02T00:04:08.187Z,100.00
2023-03-02T00:06:36.620Z,100.00
2023-03-02T00:09:04.863Z,100.00
2023-03-02T00:11:33.915Z,100.00
2023-03-02T00:14:00.862Z,100.00
2023-03-02T00:16:28.091Z,100.00
2023-03-02T00:18:54.950Z,100.00
2023-03-02T00:21:24.163Z,100.00
2023-03-02T00:23:51.967Z,100.00
2023-03-02T00:26:19.478Z,100.00
2023-03-02T00:28:46.884Z,100.00
2023-03-02T00:31:14.136Z,100.00
2023-03-02T00:33:41.056Z,100.00
2023-03-02T00:36:15.517Z,100.00
2023-03-02T00:38:42.732Z,100.00
2023-03-02T00:41:13.776Z,100.00
2023-03-02T00:43:40.979Z,100.00
2023-03-02T00:46:09.163Z,100.00
2023-03-02T00:48:36.092Z,100.00
2023-03-02T00:51:03.531Z,100.00
2023-03-02T00:53:30.572Z,100.00
2023-03-02T00:55:57.782Z,100.00
2023-03-02T00:58:31.542Z,100.00
2023-03-02T01:00:59.754Z,100.00
2023-03-02T01:03:27.423Z,100.00
2023-03-02T01:05:58.684Z,100.00
2023-03-02T01:08:25.690Z,100.00
2023-03-02T01:10:54.282Z,100.00
2023-03-02T01:13:21.575Z,100.00
2023-03-02T01:15:48.785Z,100.00
2023-03-02T01:18:15.688Z,100.00
2023-03-02T01:20:42.943Z,100.00
2023-03-02T01:23:09.901Z,100.00
2023-03-02T01:25:39.126Z,100.00
2023-03-02T01:28:08.368Z,100.00
2023-03-02T01:30:35.664Z,100.00
2023-03-02T01:33:05.895Z,100.00
2023-03-02T01:35:33.235Z,100.00
2023-03-02T01:38:00.170Z,100.00
2023-03-02T01:40:27.330Z,100.00
2023-03-02T01:42:57.855Z,100.00
2023-03-02T01:45:43.662Z,100.00
2023-03-02T01:48:11.517Z,100.00
2023-03-02T01:50:39.477Z,100.00
2023-03-02T01:53:06.840Z,100.00
2023-03-02T01:55:34.302Z,100.00
2023-03-02T01:58:02.790Z,100.00
2023-03-02T02:00:32.329Z,100.00
2023-03-02T02:03:09.260Z,100.00
2023-03-02T02:05:38.069Z,100.00
2023-03-02T02:08:05.756Z,100.00
2023-03-02T02:10:33.925Z,100.00
2023-03-02T02:13:01.422Z,100.00
2023-03-02T02:15:29.086Z,100.00
2023-03-02T02:17:55.999Z,100.00
2023-03-02T02:20:30.865Z,100.00
2023-03-02T02:23:00.676Z,100.00
2023-03-02T02:25:46.569Z,100.00
2023-03-02T02:28:21.890Z,100.00
2023-03-02T02:30:52.243Z,100.00
2023-03-02T02:33:22.226Z,100.00
2023-03-02T02:35:50.228Z,100.00
2023-03-02T02:38:18.983Z,100.00
2023-03-02T02:40:49.491Z,100.00
2023-03-02T02:43:20.259Z,100.00
2023-03-02T02:45:49.358Z,100.00
2023-03-02T02:48:20.204Z,100.00
2023-03-02T02:50:47.561Z,100.00
2023-03-02T02:53:18.130Z,100.00
2023-03-02T02:55:46.800Z,100.00
2023-03-02T02:58:33.714Z,100.00
2023-03-02T03:01:01.841Z,100.00
2023-03-02T03:03:33.631Z,100.00
2023-03-02T03:06:08.554Z,100.00
2023-03-02T03:08:44.010Z,100.00
2023-03-02T03:11:19.501Z,100.00
2023-03-02T03:13:47.045Z,100.00
2023-03-02T03:16:15.632Z,100.00
2023-03-02T03:18:45.322Z,100.00
2023-03-02T03:21:12.827Z,100.00
2023-03-02T03:23:39.737Z,100.00
2023-03-02T03:26:07.958Z,100.00
2023-03-02T03:28:35.788Z,100.00
2023-03-02T03:31:06.251Z,100.00
2023-03-02T03:33:33.180Z,100.00
2023-03-02T03:36:00.857Z,100.00
2023-03-02T03:38:28.012Z,100.00
2023-03-02T03:40:55.503Z,100.00
2023-03-02T03:43:22.907Z,100.00
2023-03-02T03:45:53.775Z,100.00
2023-03-02T03:48:20.692Z,100.00
2023-03-02T03:50:49.510Z,100.00
2023-03-02T03:53:16.402Z,100.00
2023-03-02T03:55:43.651Z,100.00
2023-03-02T03:58:10.638Z,100.00
2023-03-02T04:00:38.227Z,100.00
2023-03-02T04:03:09.157Z,100.00
2023-03-02T04:05:37.349Z,100.00
2023-03-02T04:08:05.188Z,100.00
2023-03-02T04:10:33.597Z,100.00
2023-03-02T04:13:01.913Z,100.00
2023-03-02T04:15:29.589Z,100.00
2023-03-02T04:17:58.481Z,100.00
2023-03-02T04:20:26.337Z,100.00
2023-03-02T04:22:55.323Z,100.00
2023-03-02T04:25:24.198Z,100.00
2023-03-02T04:27:54.672Z,100.00
2023-03-02T04:30:24.868Z,100.00
2023-03-02T04:32:51.918Z,100.00
2023-03-02T04:35:22.574Z,100.00
2023-03-02T04:37:51.966Z,100.00
2023-03-02T04:40:21.495Z,100.00
2023-03-02T04:42:50.785Z,100.00
2023-03-02T04:45:18.057Z,100.00
2023-03-02T04:47:45.232Z,100.00
2023-03-02T04:50:13.702Z,100.00
2023-03-02T04:52:41.049Z,100.00
2023-03-02T04:55:08.563Z,100.00
2023-03-02T04:57:35.491Z,100.00
2023-03-02T05:00:07.529Z,100.00
2023-03-02T05:02:34.466Z,100.00
2023-03-02T05:05:03.808Z,100.00
2023-03-02T05:07:30.853Z,100.00
2023-03-02T05:10:00.502Z,100.00
2023-03-02T05:12:29.703Z,100.00
2023-03-02T05:14:56.902Z,100.00
2023-03-02T05:17:23.779Z,100.00
2023-03-02T05:19:53.932Z,100.00
2023-03-02T05:22:20.827Z,100.00
2023-03-02T05:24:47.993Z,100.00
2023-03-02T05:27:14.886Z,100.00
2023-03-02T05:29:42.133Z,100.00
2023-03-02T05:32:10.496Z,100.00
2023-03-02T05:34:37.674Z,100.00
2023-03-02T05:37:04.618Z,100.00
2023-03-02T05:39:31.862Z,100.00
2023-03-02T05:41:58.823Z,100.00
2023-03-02T05:44:28.508Z,100.00
2023-03-02T05:46:55.423Z,100.00
2023-03-02T05:49:25.182Z,100.00
2023-03-02T05:51:52.069Z,100.00
2023-03-02T05:54:19.275Z,100.00
2023-03-02T05:56:46.138Z,100.00
2023-03-02T05:59:13.284Z,100.00
2023-03-02T06:01:40.180Z,100.00
2023-03-02T06:04:07.511Z,100.00
2023-03-02T06:06:35.134Z,100.00
2023-03-02T06:09:02.743Z,100.00
2023-03-02T06:11:30.420Z,100.00
2023-03-02T06:13:57.810Z,100.00
2023-03-02T06:16:24.989Z,100.00
2023-03-02T06:18:52.211Z,100.00
2023-03-02T06:21:19.114Z,100.00
2023-03-02T06:23:46.272Z,100.00
2023-03-02T06:26:13.320Z,100.00
2023-03-02T06:28:52.277Z,100.00
2023-03-02T06:31:20.587Z,100.00
2023-03-02T06:33:50.310Z,100.00
2023-03-02T06:36:19.831Z,100.00
2023-03-02T06:38:47.074Z,100.00
2023-03-02T06:41:13.973Z,100.00
2023-03-02T06:43:41.235Z,100.00
2023-03-02T06:46:10.532Z,100.00
2023-03-02T06:48:37.907Z,100.00
2023-03-02T06:51:05.029Z,100.00
2023-03-02T06:53:32.341Z,99.24
2023-03-02T06:55:59.255Z,94.92
2023-03-02T06:58:26.928Z,85.86
2023-03-02T07:00:53.851Z,81.83
2023-03-02T07:03:21.207Z,78.17
2023-03-02T07:05:49.207Z,75.05
2023-03-02T07:08:18.747Z,75.19
2023-03-02T07:10:45.697Z,70.51
2023-03-02T07:13:15.206Z,64.57
2023-03-02T07:15:42.059Z,64.32
2023-03-02T07:18:09.495Z,62.64
2023-03-02T07:20:36.377Z,60.94
2023-03-02T07:23:04.277Z,59.98
2023-03-02T07:25:31.480Z,57.12
2023-03-02T07:27:59.034Z,58.20
2023-03-02T07:30:28.453Z,54.54
2023-03-02T07:32:55.752Z,52.29
2023-03-02T07:35:22.717Z,48.58
2023-03-02T07:37:51.483Z,46.01
2023-03-02T07:40:18.644Z,45.01
2023-03-02T07:42:45.852Z,42.41
2023-03-02T07:45:14.716Z,41.35
2023-03-02T07:47:41.925Z,40.86
2023-03-02T07:50:09.184Z,39.93
2023-03-02T07:52:38.885Z,39.76
2023-03-02T07:55:06.855Z,39.38
2023-03-02T07:57:34.151Z,39.28
2023-03-02T08:00:01.105Z,38.78
2023-03-02T08:02:33.617Z,38.41
2023-03-02T08:05:02.559Z,39.37
2023-03-02T08:07:29.805Z,37.78
2023-03-02T08:09:58.113Z,36.31
2023-03-02T08:12:25.456Z,35.90
2023-03-02T08:14:52.433Z,35.74
2023-03-02T08:17:19.906Z,35.07
2023-03-02T08:19:49.677Z,33.98
2023-03-02T08:22:16.978Z,33.74
2023-03-02T08:24:46.552Z,34.03
2023-03-02T08:27:14.552Z,35.95
2023-03-02T08:29:41.431Z,36.23
2023-03-02T08:32:11.200Z,37.84
2023-03-02T08:34:38.245Z,38.20
2023-03-02T08:37:08.084Z,40.98
2023-03-02T08:39:37.465Z,42.56
2023-03-02T08:42:07.078Z,41.68
2023-03-02T08:44:34.074Z,43.64
2023-03-02T08:47:01.457Z,45.62
2023-03-02T08:49:28.459Z,45.55
2023-03-02T08:51:58.373Z,47.05
2023-03-02T08:54:25.337Z,47.74
2023-03-02T08:56:52.914Z,49.27
2023-03-02T08:59:21.179Z,48.52
2023-03-02T09:01:48.987Z,48.86
2023-03-02T09:04:16.099Z,50.12
2023-03-02T09:06:46.009Z,51.09
2023-03-02T09:09:13.943Z,50.26
2023-03-02T09:11:42.393Z,51.55
2023-03-02T09:14:09.858Z,51.74
2023-03-02T09:16:37.049Z,52.42
2023-03-02T09:19:04.299Z,55.34
2023-03-02T09:21:32.245Z,53.55
2023-03-02T09:23:59.404Z,52.69
2023-03-02T09:26:27.075Z,52.33
2023-03-02T09:28:54.213Z,53.16
2023-03-02T09:31:21.859Z,51.67
2023-03-02T09:33:48.837Z,50.84
2023-03-02T09:36:24.975Z,51.55
2023-03-02T09:38:52.364Z,52.46
2023-03-02T09:41:19.643Z,50.75
2023-03-02T09:43:55.679Z,52.65
2023-03-02T09:46:32.257Z,53.23
2023-03-02T09:49:05.262Z,52.88
2023-03-02T09:51:53.797Z,51.76
2023-03-02T09:54:26.379Z,55.32
2023-03-02T09:56:55.054Z,53.09
2023-03-02T09:59:33.392Z,52.98
2023-03-02T10:02:21.375Z,51.93
2023-03-02T10:04:50.406Z,51.23
2023-03-02T10:07:22.545Z,53.11
2023-03-02T10:09:49.407Z,53.05
2023-03-02T10:12:25.554Z,53.47
2023-03-02T10:15:18.951Z,53.49
2023-03-02T10:18:05.240Z,54.73
2023-03-02T10:20:35.213Z,53.42
2023-03-02T10:23:20.005Z,53.10
2023-03-02T10:25:52.476Z,54.48
2023-03-02T10:28:21.568Z,55.30
2023-03-02T10:30:58.096Z,54.56
2023-03-02T10:33:27.178Z,53.89
2023-03-02T10:35:54.377Z,55.54
2023-03-02T10:38:23.063Z,54.71
2023-03-02T10:40:50.025Z,52.84
2023-03-02T10:43:20.114Z,53.82
2023-03-02T10:45:57.677Z,55.69
2023-03-02T10:48:24.900Z,54.83
2023-03-02T10:50:56.066Z,55.35
2023-03-02T10:53:23.301Z,54.13
2023-03-02T10:55:52.395Z,54.04
2023-03-02T10:58:33.542Z,53.79
2023-03-02T11:01:05.212Z,53.49
2023-03-02T11:03:33.127Z,55.18
2023-03-02T11:06:11.600Z,55.42
2023-03-02T11:08:38.884Z,54.69
2023-03-02T11:11:05.767Z,54.67
2023-03-02T11:13:34.909Z,54.36
2023-03-02T11:16:03.288Z,55.26
2023-03-02T11:18:48.724Z,56.20
2023-03-02T11:21:15.565Z,56.05
2023-03-02T11:23:51.489Z,55.48
2023-03-02T11:26:22.354Z,56.00
2023-03-02T11:28:54.534Z,55.64
2023-03-02T11:31:41.862Z,55.60
2023-03-02T11:34:27.620Z,56.81
2023-03-02T11:36:57.753Z,55.49
2023-03-02T11:39:54.984Z,57.72
2023-03-02T11:42:29.631Z,54.18
2023-03-02T11:45:01.224Z,56.14
2023-03-02T11:47:28.440Z,55.53
2023-03-02T11:49:57.246Z,55.02
2023-03-02T11:52:26.334Z,56.43
2023-03-02T11:55:14.366Z,54.30
2023-03-02T11:57:48.696Z,54.97
2023-03-02T12:00:24.027Z,52.83
2023-03-02T12:03:00.125Z,54.13
2023-03-02T12:05:29.709Z,54.06
2023-03-02T12:07:57.960Z,53.65
2023-03-02T12:10:31.158Z,54.12
2023-03-02T12:13:14.583Z,52.60
2023-03-02T12:15:46.814Z,53.13
2023-03-02T12:18:16.719Z,53.59
2023-03-02T12:20:44.126Z,51.96
2023-03-02T12:23:21.879Z,51.38
2023-03-02T12:25:51.785Z,53.10
2023-03-02T12:28:25.693Z,52.38
2023-03-02T12:30:57.557Z,52.90
2023-03-02T12:33:24.446Z,51.20
2023-03-02T12:36:03.259Z,49.66
2023-03-02T12:38:32.756Z,49.97
2023-03-02T12:41:18.991Z,50.51
2023-03-02T12:44:06.086Z,49.96
2023-03-02T12:46:34.700Z,48.86
2023-03-02T12:49:20.664Z,48.66
2023-03-02T12:51:51.191Z,47.54
2023-03-02T12:54:22.835Z,48.46
2023-03-02T12:56:50.354Z,48.94
2023-03-02T12:59:20.255Z,49.03
2023-03-02T13:01:47.433Z,49.83
2023-03-02T13:04:21.505Z,47.82
2023-03-02T13:06:48.772Z,47.81
2023-03-02T13:09:20.383Z,48.26
2023-03-02T13:11:49.472Z,49.52
2023-03-02T13:14:21.110Z,48.18
2023-03-02T13:17:14.674Z,48.46
2023-03-02T13:19:41.596Z,47.98
2023-03-02T13:22:12.416Z,47.11
2023-03-02T13:24:45.639Z,47.29
2023-03-02T13:27:17.848Z,46.04
2023-03-02T13:29:45.812Z,46.53
2023-03-02T13:32:19.444Z,46.22
2023-03-02T13:34:57.989Z,44.93
2023-03-02T13:37:25.277Z,45.50
2023-03-02T13:40:00.891Z,45.50
2023-03-02T13:42:34.097Z,45.26
2023-03-02T13:45:19.964Z,46.63
2023-03-02T13:47:49.679Z,44.80
2023-03-02T13:50:30.416Z,44.18
2023-03-02T13:52:58.733Z,43.69
2023-03-02T13:55:25.801Z,44.61
2023-03-02T13:57:53.610Z,44.37
2023-03-02T14:00:22.065Z,44.47
2023-03-02T14:02:53.894Z,44.83
2023-03-02T14:05:23.107Z,44.40
2023-03-02T14:07:50.446Z,43.76
2023-03-02T14:10:20.477Z,44.66
2023-03-02T14:12:52.795Z,44.40
2023-03-02T14:15:19.887Z,44.81
2023-03-02T14:17:49.211Z,44.34
2023-03-02T14:20:19.071Z,43.24
2023-03-02T14:22:47.359Z,43.56
2023-03-02T14:25:14.400Z,43.43
2023-03-02T14:27:42.485Z,42.81
2023-03-02T14:30:19.733Z,43.66
2023-03-02T14:32:47.506Z,43.60
2023-03-02T14:35:15.925Z,44.72
2023-03-02T14:37:45.013Z,44.65
2023-03-02T14:40:17.278Z,43.83
2023-03-02T14:42:44.562Z,44.10
2023-03-02T14:45:13.779Z,44.97
2023-03-02T14:47:41.832Z,43.51
2023-03-02T14:50:09.221Z,42.87
2023-03-02T14:52:38.963Z,43.07
2023-03-02T14:55:07.969Z,43.19
2023-03-02T14:57:37.339Z,44.15
2023-03-02T15:00:05.436Z,43.89
2023-03-02T15:02:32.973Z,43.90
2023-03-02T15:05:02.455Z,44.65
2023-03-02T15:07:29.719Z,44.38
2023-03-02T15:09:57.759Z,44.76
2023-03-02T15:12:25.559Z,42.92
2023-03-02T15:14:52.531Z,42.44
2023-03-02T15:17:20.322Z,43.47
2023-03-02T15:19:50.294Z,43.72
2023-03-02T15:22:17.703Z,43.84
2023-03-02T15:24:44.578Z,43.93
2023-03-02T15:27:11.797Z,43.24
2023-03-02T15:29:38.926Z,42.28
2023-03-02T15:32:08.822Z,43.58
2023-03-02T15:34:35.762Z,43.04
2023-03-02T15:37:03.351Z,43.56
2023-03-02T15:39:30.286Z,42.92
2023-03-02T15:41:59.822Z,43.61
2023-03-02T15:44:26.700Z,44.10
2023-03-02T15:46:54.813Z,44.36
2023-03-02T15:49:24.510Z,43.56
2023-03-02T15:51:52.254Z,44.37
2023-03-02T15:54:21.663Z,44.70
2023-03-02T15:56:53.393Z,44.20
2023-03-02T15:59:21.677Z,45.01
2023-03-02T16:01:48.953Z,45.70
2023-03-02T16:04:16.162Z,46.30
2023-03-02T16:06:43.899Z,46.27
2023-03-02T16:09:13.108Z,46.79
2023-03-02T16:11:40.243Z,46.39
2023-03-02T16:14:07.372Z,46.91
2023-03-02T16:16:34.742Z,47.22
2023-03-02T16:19:01.804Z,48.03
2023-03-02T16:21:29.182Z,48.84
2023-03-02T16:24:03.342Z,49.00
2023-03-02T16:26:34.621Z,50.03
2023-03-02T16:29:04.023Z,49.91
2023-03-02T16:31:33.231Z,51.16
2023-03-02T16:34:03.867Z,51.05
2023-03-02T16:36:31.318Z,51.36
2023-03-02T16:38:58.432Z,51.54
2023-03-02T16:41:26.050Z,51.81
2023-03-02T16:44:00.011Z,52.24
2023-03-02T16:46:29.196Z,52.94
2023-03-02T16:48:57.341Z,54.19
2023-03-02T16:51:25.012Z,54.75
2023-03-02T16:53:54.722Z,55.41
2023-03-02T16:56:22.322Z,55.99
2023-03-02T16:58:50.357Z,56.05
2023-03-02T17:01:21.996Z,57.75
2023-03-02T17:03:50.408Z,58.30
2023-03-02T17:06:19.266Z,59.13
2023-03-02T17:08:46.259Z,60.54
2023-03-02T17:11:16.269Z,61.47
2023-03-02T17:13:46.090Z,62.55
2023-03-02T17:16:14.137Z,62.78
2023-03-02T17:18:41.431Z,63.78
2023-03-02T17:21:08.816Z,63.92
2023-03-02T17:23:37.340Z,65.88
2023-03-02T17:26:05.446Z,66.85
2023-03-02T17:28:32.985Z,67.92
2023-03-02T17:31:04.423Z,69.19
2023-03-02T17:33:32.472Z,71.47
2023-03-02T17:36:03.274Z,71.15
2023-03-02T17:38:30.327Z,70.77
2023-03-02T17:41:01.822Z,70.85
2023-03-02T17:43:30.674Z,72.07
2023-03-02T17:46:07.620Z,73.11
2023-03-02T17:48:35.120Z,76.69
2023-03-02T17:51:04.404Z,79.07
2023-03-02T17:53:31.896Z,79.66
2023-03-02T17:55:59.620Z,80.48
2023-03-02T17:58:35.976Z,81.32
2023-03-02T18:01:10.787Z,83.87
2023-03-02T18:03:39.119Z,85.80
2023-03-02T18:06:09.671Z,86.62
2023-03-02T18:08:37.333Z,89.65
2023-03-02T18:11:05.422Z,93.48
2023-03-02T18:13:32.892Z,95.30
2023-03-02T18:16:00.772Z,96.69
2023-03-02T18:18:29.496Z,99.52
2023-03-02T18:20:57.025Z,100.00
2023-03-02T18:23:24.876Z,100.00
2023-03-02T18:25:53.218Z,100.00
2023-03-02T18:28:21.216Z,100.00
2023-03-02T18:30:49.144Z,100.00
2023-03-02T18:33:16.495Z,100.00
2023-03-02T18:35:44.419Z,100.00
2023-03-02T18:38:12.212Z,100.00
2023-03-02T18:40:40.289Z,100.00
2023-03-02T18:43:10.291Z,100.00
2023-03-02T18:45:42.906Z,100.00
2023-03-02T18:48:12.650Z,100.00
2023-03-02T18:50:41.113Z,100.00
2023-03-02T18:53:10.291Z,100.00
2023-03-02T18:55:44.296Z,100.00
2023-03-02T18:58:17.364Z,100.00
2023-03-02T19:00:46.037Z,100.00
2023-03-02T19:03:15.473Z,100.00
2023-03-02T19:05:47.656Z,100.00
2023-03-02T19:08:15.389Z,100.00
2023-03-02T19:10:43.286Z,100.00
2023-03-02T19:13:11.995Z,100.00
2023-03-02T19:15:41.986Z,100.00
2023-03-02T19:18:10.525Z,100.00
2023-03-02T19:20:38.787Z,100.00
2023-03-02T19:23:06.762Z,100.00
2023-03-02T19:25:34.940Z,100.00
2023-03-02T19:28:03.148Z,100.00
2023-03-02T19:30:31.515Z,100.00
2023-03-02T19:32:59.307Z,100.00
2023-03-02T19:35:27.837Z,100.00
2023-03-02T19:37:55.138Z,100.00
2023-03-02T19:40:25.543Z,100.00
2023-03-02T19:42:54.369Z,100.00
2023-03-02T19:45:30.068Z,100.00
2023-03-02T19:47:58.209Z,100.00
2023-03-02T19:50:28.020Z,100.00
2023-03-02T19:52:59.748Z,100.00
2023-03-02T19:55:28.286Z,100.00
2023-03-02T19:58:03.055Z,100.00
2023-03-02T20:00:33.010Z,100.00
2023-03-02T20:03:00.789Z,100.00
2023-03-02T20:05:29.364Z,100.00
2023-03-02T20:07:57.431Z,100.00
2023-03-02T20:10:41.400Z,100.00
2023-03-02T20:13:12.297Z,100.00
2023-03-02T20:15:43.120Z,100.00
2023-03-02T20:18:13.059Z,100.00
2023-03-02T20:20:41.751Z,100.00
2023-03-02T20:23:10.763Z,100.00
2023-03-02T20:25:39.174Z,100.00
2023-03-02T20:28:09.989Z,100.00
2023-03-02T20:30:43.476Z,100.00
2023-03-02T20:33:11.870Z,100.00
2023-03-02T20:35:41.634Z,100.00
2023-03-02T20:38:12.349Z,100.00
2023-03-02T20:40:40.538Z,100.00
2023-03-02T20:43:08.406Z,100.00
2023-03-02T20:45:36.443Z,100.00
2023-03-02T20:48:04.796Z,100.00
2023-03-02T20:50:34.247Z,100.00
2023-03-02T20:53:02.487Z,100.00
2023-03-02T20:55:30.623Z,100.00
2023-03-02T20:57:58.973Z,100.00
2023-03-02T21:00:27.940Z,100.00
2023-03-02T21:02:55.969Z,100.00
2023-03-02T21:05:25.145Z,100.00
2023-03-02T21:07:53.381Z,100.00
2023-03-02T21:10:23.426Z,100.00
2023-03-02T21:12:52.361Z,100.00
2023-03-02T21:15:22.951Z,100.00
2023-03-02T21:18:00.615Z,100.00
2023-03-02T21:20:32.721Z,100.00
2023-03-02T21:22:59.941Z,100.00
2023-03-02T21:25:28.425Z,100.00
2023-03-02T21:27:56.574Z,100.00
2023-03-02T21:30:26.319Z,100.00
2023-03-02T21:32:53.974Z,100.00
2023-03-02T21:35:21.452Z,100.00
2023-03-02T21:37:49.692Z,100.00
2023-03-02T21:40:19.236Z,100.00
2023-03-02T21:42:46.514Z,100.00
2023-03-02T21:45:16.177Z,100.00
2023-03-02T21:47:43.302Z,100.00
2023-03-02T21:50:32.699Z,100.00
2023-03-02T21:52:59.718Z,100.00
2023-03-02T21:55:27.321Z,100.00
2023-03-02T21:57:54.600Z,100.00
2023-03-02T22:00:23.574Z,100.00
2023-03-02T22:02:51.105Z,100.00
2023-03-02T22:05:18.612Z,100.00
2023-03-02T22:07:45.855Z,100.00
2023-03-02T22:10:22.833Z,100.00
2023-03-02T22:12:54.498Z,100.00
2023-03-02T22:15:22.438Z,100.00
2023-03-02T22:17:51.301Z,100.00
2023-03-02T22:20:20.033Z,100.00
2023-03-02T22:22:48.050Z,100.00
2023-03-02T22:25:18.816Z,100.00
2023-03-02T22:27:46.764Z,100.00
2023-03-02T22:30:19.950Z,100.00
2023-03-02T22:32:49.577Z,100.00
2023-03-02T22:35:22.123Z,100.00
2023-03-02T22:37:51.798Z,100.00
2023-03-02T22:40:33.321Z,100.00
2023-03-02T22:43:03.333Z,100.00
2023-03-02T22:45:30.550Z,100.00
2023-03-02T22:47:58.020Z,100.00
2023-03-02T22:50:26.889Z,100.00
2023-03-02T22:52:57.163Z,100.00
2023-03-02T22:55:30.182Z,100.00
2023-03-02T22:57:57.160Z,100.00
2023-03-02T23:00:40.288Z,100.00
2023-03-02T23:03:20.398Z,100.00
2023-03-02T23:05:51.575Z,100.00
2023-03-02T23:08:21.503Z,100.00
2023-03-02T23:10:49.684Z,100.00
2023-03-02T23:13:17.840Z,100.00
2023-03-02T23:15:45.747Z,100.00
2023-03-02T23:18:23.711Z,100.00
2023-03-02T23:20:51.110Z,100.00
2023-03-02T23:23:18.380Z,100.00
2023-03-02T23:25:48.055Z,100.00
2023-03-02T23:28:15.137Z,100.00
2023-03-02T23:30:42.394Z,100.00
2023-03-02T23:33:11.582Z,100.00
2023-03-02T23:35:38.858Z,100.00
2023-03-02T23:38:05.683Z,100.00
2023-03-02T23:40:33.274Z,100.00
2023-03-02T23:43:02.637Z,100.00
2023-03-02T23:45:30.181Z,100.00
2023-03-02T23:47:59.366Z,100.00
2023-03-02T23:50:26.577Z,100.00
2023-03-02T23:52:53.617Z,100.00
2023-03-02T23:55:20.735Z,100.00
2023-03-02T23:57:47.616Z,100.00
